Time;durP1;ratioP1;P1;durP2;ratioP2;P2;SDS_P1;SDS_P2;PMS_P1;PMS_P2;Temp;Humidity;BMP_temperature;BMP_pressure;BME280_temperature;BME280_humidity;BME280_pressure;Samples;Min_cycle;Max_cycle;Signal;HPM_P1;HPM_P2
2024/01/26 00:02:01;;;;;;;10.57;5.13;;;;;;;;;;5071716;28;20204;-69
2024/01/26 00:04:27;;;;;;;7.72;5.55;;;;;;;;;;5073772;28;20311;-69
2024/01/26 00:06:54;;;;;;;8.88;5.93;;;;;;;;;;5076198;28;20219;-68
2024/01/26 00:09:21;;;;;;;13.27;7.25;;;;;;;;;;5075956;28;20216;-68
2024/01/26 00:11:47;;;;;;;15.32;7.00;;;;;;;;;;5076247;28;20200;-69
2024/01/26 00:14:13;;;;;;;11.82;6.35;;;;;;;;;;5075381;28;20208;-69
2024/01/26 00:16:40;;;;;;;11.60;6.97;;;;;;;;;;5076008;28;20220;-69
2024/01/26 00:19:08;;;;;;;10.88;6.45;;;;;;;;;;5075600;28;20610;-69
2024/01/26 00:21:34;;;;;;;14.50;6.65;;;;;;;;;;5075798;28;20254;-69
2024/01/26 00:24:01;;;;;;;11.95;6.95;;;;;;;;;;5076232;28;20664;-69
2024/01/26 00:26:27;;;;;;;16.45;6.50;;;;;;;;;;5076514;28;20337;-69
2024/01/26 00:28:53;;;;;;;11.43;6.85;;;;;;;;;;5076905;28;20274;-69
2024/01/26 00:31:19;;;;;;;11.48;6.32;;;;;;;;;;5075639;28;20208;-69
2024/01/26 00:33:46;;;;;;;14.48;7.22;;;;;;;;;;5075281;28;20196;-69
2024/01/26 00:36:14;;;;;;;10.85;6.82;;;;;;;;;;5075326;28;20715;-69
2024/01/26 00:38:40;;;;;;;13.32;6.78;;;;;;;;;;5075208;28;20200;-69
2024/01/26 00:41:07;;;;;;;16.77;7.57;;;;;;;;;;5075229;28;20283;-69
2024/01/26 00:43:33;;;;;;;13.70;7.55;;;;;;;;;;5075236;28;20291;-69
2024/01/26 00:45:59;;;;;;;11.85;7.50;;;;;;;;;;5075394;28;20221;-69
2024/01/26 00:48:25;;;;;;;17.33;8.13;;;;;;;;;;5075086;28;20257;-69
2024/01/26 00:50:51;;;;;;;16.17;8.10;;;;;;;;;;5075043;28;20613;-69
2024/01/26 00:53:19;;;;;;;14.75;7.95;;;;;;;;;;5074956;28;20273;-69
2024/01/26 00:55:45;;;;;;;16.40;8.05;;;;;;;;;;5074735;28;20652;-69
2024/01/26 00:58:12;;;;;;;15.52;8.65;;;;;;;;;;5074947;28;20290;-69
2024/01/26 01:00:38;;;;;;;12.30;7.38;;;;;;;;;;5074902;28;20200;-69
2024/01/26 01:03:05;;;;;;;13.10;7.10;;;;;;;;;;5074670;28;20268;-69
2024/01/26 01:05:31;;;;;;;12.82;7.30;;;;;;;;;;5074598;28;20780;-69
2024/01/26 01:07:57;;;;;;;16.60;8.00;;;;;;;;;;5075053;28;20561;-69
2024/01/26 01:10:25;;;;;;;11.93;7.13;;;;;;;;;;5074588;28;20278;-69
2024/01/26 01:12:52;;;;;;;14.07;7.03;;;;;;;;;;5074619;28;20212;-69
2024/01/26 01:15:18;;;;;;;15.48;7.65;;;;;;;;;;5074627;28;20200;-69
2024/01/26 01:17:45;;;;;;;15.07;7.38;;;;;;;;;;5074979;28;20204;-69
2024/01/26 01:20:13;;;;;;;13.23;6.90;;;;;;;;;;5074722;28;20287;-69
2024/01/26 01:22:40;;;;;;;11.25;7.20;;;;;;;;;;5074635;28;20205;-69
2024/01/26 01:25:07;;;;;;;9.63;6.53;;;;;;;;;;5074257;28;20204;-69
2024/01/26 01:27:36;;;;;;;8.07;6.35;;;;;;;;;;5074314;28;20693;-69
2024/01/26 01:30:02;;;;;;;9.45;6.38;;;;;;;;;;5074295;28;20232;-69
2024/01/26 01:32:29;;;;;;;12.25;6.38;;;;;;;;;;5074275;28;20272;-69
2024/01/26 01:34:55;;;;;;;11.27;6.43;;;;;;;;;;5074103;28;20633;-69
2024/01/26 01:37:21;;;;;;;10.65;6.38;;;;;;;;;;5074055;28;20216;-69
2024/01/26 01:39:48;;;;;;;9.88;5.82;;;;;;;;;;5074004;28;20201;-69
2024/01/26 01:42:14;;;;;;;6.20;5.00;;;;;;;;;;5074499;28;20205;-69
2024/01/26 01:44:42;;;;;;;5.60;4.05;;;;;;;;;;5074002;28;20239;-69
2024/01/26 01:47:09;;;;;;;4.72;4.18;;;;;;;;;;5073854;28;20281;-69
2024/01/26 01:49:35;;;;;;;6.43;4.00;;;;;;;;;;5073392;28;20212;-69
2024/01/26 01:52:04;;;;;;;2.35;2.15;;;;;;;;;;5073826;28;20207;-69
2024/01/26 01:54:31;;;;;;;2.63;1.90;;;;;;;;;;5074333;28;20200;-69
2024/01/26 01:56:57;;;;;;;2.17;2.05;;;;;;;;;;5073976;28;20474;-69
2024/01/26 01:59:24;;;;;;;2.45;2.30;;;;;;;;;;5073801;28;20631;-69
2024/01/26 02:01:51;;;;;;;2.30;2.20;;;;;;;;;;5074140;28;20200;-69
2024/01/26 02:04:17;;;;;;;2.13;2.00;;;;;;;;;;5073634;28;20246;-69
2024/01/26 02:06:53;;;;;;;1.92;1.83;;;;;;;;;;5073614;28;20270;-69
2024/01/26 02:09:19;;;;;;;1.15;1.15;;;;;;;;;;5073637;28;20651;-69
2024/01/26 02:11:45;;;;;;;1.85;0.90;;;;;;;;;;5073786;28;20197;-69
2024/01/26 02:14:11;;;;;;;0.90;0.80;;;;;;;;;;5073191;28;20269;-69
2024/01/26 02:16:38;;;;;;;2.08;0.93;;;;;;;;;;5073475;28;20212;-70
2024/01/26 02:19:05;;;;;;;2.67;1.10;;;;;;;;;;5073244;28;20375;-69
2024/01/26 02:21:32;;;;;;;1.17;1.17;;;;;;;;;;5073227;28;20200;-69
2024/01/26 02:24:00;;;;;;;0.98;0.90;;;;;;;;;;5073455;28;20201;-70
2024/01/26 02:26:26;;;;;;;1.48;1.42;;;;;;;;;;5072821;28;20217;-69
2024/01/26 02:28:52;;;;;;;6.10;1.88;;;;;;;;;;5072689;28;20200;-70
2024/01/26 02:31:18;;;;;;;2.75;2.25;;;;;;;;;;5073299;28;20208;-69
2024/01/26 02:33:45;;;;;;;2.00;1.90;;;;;;;;;;5072917;28;20250;-69
2024/01/26 02:36:11;;;;;;;2.33;2.13;;;;;;;;;;5073283;28;20216;-70
2024/01/26 02:38:37;;;;;;;3.55;2.35;;;;;;;;;;5073178;28;20192;-70
2024/01/26 02:41:05;;;;;;;2.10;2.00;;;;;;;;;;5056633;28;20192;-70
2024/01/26 02:43:31;;;;;;;2.85;1.95;;;;;;;;;;5072922;28;20192;-70
2024/01/26 02:45:58;;;;;;;3.92;2.13;;;;;;;;;;5072637;28;20224;-69
2024/01/26 02:48:24;;;;;;;4.03;2.08;;;;;;;;;;5072721;28;20200;-70
2024/01/26 02:50:50;;;;;;;1.90;1.80;;;;;;;;;;5072796;28;20720;-70
2024/01/26 02:53:16;;;;;;;1.95;1.80;;;;;;;;;;5072834;28;20201;-70
2024/01/26 02:55:42;;;;;;;2.28;2.08;;;;;;;;;;5072657;28;20216;-70
2024/01/26 02:58:10;;;;;;;1.40;1.40;;;;;;;;;;5072751;28;20246;-70
2024/01/26 03:00:36;;;;;;;1.58;1.48;;;;;;;;;;5072642;28;20203;-70
2024/01/26 03:03:03;;;;;;;2.30;2.10;;;;;;;;;;5072094;28;20249;-70
2024/01/26 03:05:29;;;;;;;2.88;2.67;;;;;;;;;;5072561;28;20312;-70
2024/01/26 03:07:55;;;;;;;4.45;1.88;;;;;;;;;;5072558;28;20212;-70
2024/01/26 03:10:21;;;;;;;4.32;1.70;;;;;;;;;;5072677;28;20262;-70
2024/01/26 03:12:48;;;;;;;1.88;1.77;;;;;;;;;;5072374;28;20201;-69
2024/01/26 03:15:16;;;;;;;1.67;1.67;;;;;;;;;;5072336;28;20200;-69
2024/01/26 03:17:42;;;;;;;1.88;1.60;;;;;;;;;;5072455;28;20196;-69
2024/01/26 03:20:09;;;;;;;2.88;2.72;;;;;;;;;;5072436;28;20193;-70
2024/01/26 03:22:35;;;;;;;2.10;2.00;;;;;;;;;;5072240;28;20798;-69
2024/01/26 03:25:05;;;;;;;1.50;1.50;;;;;;;;;;5072192;28;20653;-69
2024/01/26 03:27:31;;;;;;;1.88;1.77;;;;;;;;;;5072267;28;20204;-69
2024/01/26 03:29:57;;;;;;;2.55;2.30;;;;;;;;;;5072020;28;20228;-69
2024/01/26 03:32:25;;;;;;;2.15;2.05;;;;;;;;;;5072349;28;20196;-69
2024/01/26 03:34:51;;;;;;;1.55;1.55;;;;;;;;;;5071886;28;20676;-69
2024/01/26 03:37:18;;;;;;;1.40;1.40;;;;;;;;;;5071923;28;20277;-69
2024/01/26 03:39:44;;;;;;;1.60;1.05;;;;;;;;;;5071911;28;20283;-69
2024/01/26 03:42:11;;;;;;;1.42;1.10;;;;;;;;;;5055754;28;20242;-69
2024/01/26 03:44:38;;;;;;;1.05;1.00;;;;;;;;;;5072240;28;20207;-69
2024/01/26 03:47:07;;;;;;;1.00;1.00;;;;;;;;;;5072100;28;20220;-70
2024/01/26 03:49:35;;;;;;;1.30;1.30;;;;;;;;;;5072036;28;20227;-68
2024/01/26 03:52:01;;;;;;;1.45;0.95;;;;;;;;;;5071769;28;20207;-68
2024/01/26 03:54:27;;;;;;;1.25;1.25;;;;;;;;;;5072005;28;20189;-69
2024/01/26 03:56:53;;;;;;;1.20;1.10;;;;;;;;;;5071877;28;20212;-68
2024/01/26 03:59:20;;;;;;;1.38;1.30;;;;;;;;;;5071864;28;20242;-69
2024/01/26 04:01:46;;;;;;;1.85;1.20;;;;;;;;;;5071948;28;20192;-69
2024/01/26 04:04:12;;;;;;;1.35;1.35;;;;;;;;;;5055606;28;20200;-69
2024/01/26 04:06:40;;;;;;;1.20;1.10;;;;;;;;;;5072268;28;20216;-69
2024/01/26 04:09:07;;;;;;;1.20;1.10;;;;;;;;;;5071819;28;20638;-69
2024/01/26 04:11:33;;;;;;;1.30;0.93;;;;;;;;;;5071854;28;20629;-69
2024/01/26 04:13:59;;;;;;;1.15;1.15;;;;;;;;;;5071765;28;20213;-69
2024/01/26 04:16:25;;;;;;;1.10;1.00;;;;;;;;;;5071726;28;20273;-69
2024/01/26 04:18:52;;;;;;;1.20;1.20;;;;;;;;;;5071419;28;20246;-69
2024/01/26 04:21:18;;;;;;;1.15;1.10;;;;;;;;;;5071491;28;20192;-69
2024/01/26 04:23:46;;;;;;;1.92;1.40;;;;;;;;;;5071340;28;20200;-69
2024/01/26 04:26:12;;;;;;;1.10;1.10;;;;;;;;;;5071532;28;20216;-70
2024/01/26 04:28:38;;;;;;;1.20;1.20;;;;;;;;;;5071832;28;20283;-69
2024/01/26 04:31:05;;;;;;;0.90;0.90;;;;;;;;;;5071759;28;20220;-68
2024/01/26 04:33:31;;;;;;;1.30;1.10;;;;;;;;;;5072126;28;20204;-68
2024/01/26 04:35:58;;;;;;;1.00;1.00;;;;;;;;;;5071635;28;20274;-68
2024/01/26 04:38:24;;;;;;;1.85;0.98;;;;;;;;;;5072312;28;20200;-68
2024/01/26 04:40:51;;;;;;;1.20;1.20;;;;;;;;;;5085866;28;20200;-69
2024/01/26 04:43:18;;;;;;;1.02;1.02;;;;;;;;;;5090656;28;20231;-69
2024/01/26 04:45:45;;;;;;;1.00;1.00;;;;;;;;;;5089283;28;20238;-69
2024/01/26 04:48:12;;;;;;;0.90;0.90;;;;;;;;;;5088059;28;20232;-69
2024/01/26 04:50:38;;;;;;;0.98;0.98;;;;;;;;;;5076118;28;20221;-68
2024/01/26 04:53:05;;;;;;;0.70;0.70;;;;;;;;;;5089199;28;20227;-69
2024/01/26 04:55:32;;;;;;;1.10;0.70;;;;;;;;;;5094186;28;20221;-69
2024/01/26 04:58:00;;;;;;;1.02;0.80;;;;;;;;;;5094173;28;20196;-69
2024/01/26 05:00:26;;;;;;;0.80;0.80;;;;;;;;;;5086867;28;20192;-69
2024/01/26 05:02:52;;;;;;;0.70;0.70;;;;;;;;;;5087986;28;20188;-69
2024/01/26 05:05:18;;;;;;;0.70;0.70;;;;;;;;;;5090252;28;20196;-69
2024/01/26 05:07:45;;;;;;;0.60;0.60;;;;;;;;;;5091944;28;20200;-69
2024/01/26 05:10:11;;;;;;;1.20;0.60;;;;;;;;;;5086435;28;20258;-69
2024/01/26 05:12:38;;;;;;;0.70;0.70;;;;;;;;;;5075615;28;20200;-69
2024/01/26 05:15:08;;;;;;;1.27;0.63;;;;;;;;;;5075500;28;20242;-69
2024/01/26 05:17:35;;;;;;;0.85;0.70;;;;;;;;;;5075427;28;20575;-69
2024/01/26 05:20:01;;;;;;;0.88;0.60;;;;;;;;;;5075361;28;20408;-69
2024/01/26 05:22:27;;;;;;;0.57;0.57;;;;;;;;;;5075372;28;20196;-69
2024/01/26 05:24:53;;;;;;;0.60;0.60;;;;;;;;;;5081932;28;20208;-69
2024/01/26 05:27:19;;;;;;;0.60;0.60;;;;;;;;;;5063988;28;20235;-69
2024/01/26 05:29:46;;;;;;;0.73;0.40;;;;;;;;;;5074947;28;20721;-69
2024/01/26 05:32:14;;;;;;;0.90;0.60;;;;;;;;;;5080632;28;20221;-69
2024/01/26 05:34:40;;;;;;;1.20;0.50;;;;;;;;;;5084413;28;20641;-69
2024/01/26 05:37:06;;;;;;;0.55;0.55;;;;;;;;;;5073978;28;20221;-69
2024/01/26 05:39:33;;;;;;;0.60;0.60;;;;;;;;;;5074617;28;20196;-69
2024/01/26 05:41:59;;;;;;;0.63;0.63;;;;;;;;;;5074850;28;20250;-69
2024/01/26 05:44:25;;;;;;;0.50;0.50;;;;;;;;;;5074336;28;20200;-69
2024/01/26 05:46:51;;;;;;;1.20;0.70;;;;;;;;;;5074374;28;20224;-69
2024/01/26 05:49:19;;;;;;;1.27;0.60;;;;;;;;;;5074167;28;20246;-69
2024/01/26 05:51:45;;;;;;;0.60;0.57;;;;;;;;;;5074472;28;20216;-69
2024/01/26 05:54:12;;;;;;;0.57;0.57;;;;;;;;;;5074188;28;20227;-69
2024/01/26 05:56:39;;;;;;;0.50;0.50;;;;;;;;;;5074190;28;20266;-70
2024/01/26 05:59:06;;;;;;;2.05;0.60;;;;;;;;;;5073905;28;20258;-70
2024/01/26 06:01:32;;;;;;;0.60;0.60;;;;;;;;;;5073146;28;20200;-69
2024/01/26 06:03:58;;;;;;;0.68;0.60;;;;;;;;;;5073771;28;20258;-70
2024/01/26 06:06:26;;;;;;;0.52;0.52;;;;;;;;;;5074202;28;20224;-70
2024/01/26 06:08:52;;;;;;;0.95;0.60;;;;;;;;;;5073937;28;20201;-70
2024/01/26 06:11:19;;;;;;;1.95;0.60;;;;;;;;;;5073706;28;20220;-70
2024/01/26 06:13:45;;;;;;;0.60;0.60;;;;;;;;;;5073362;28;20661;-70
2024/01/26 06:16:13;;;;;;;1.33;0.75;;;;;;;;;;5073626;28;20232;-70
2024/01/26 06:18:39;;;;;;;0.85;0.82;;;;;;;;;;5073862;28;20231;-70
2024/01/26 06:21:05;;;;;;;0.90;0.80;;;;;;;;;;5074081;28;20246;-70
2024/01/26 06:23:32;;;;;;;1.55;0.60;;;;;;;;;;5073843;28;20207;-70
2024/01/26 06:25:58;;;;;;;3.45;1.00;;;;;;;;;;5073700;28;20255;-70
2024/01/26 06:28:24;;;;;;;1.08;0.70;;;;;;;;;;5073212;28;20250;-69
2024/01/26 06:30:52;;;;;;;2.28;0.80;;;;;;;;;;5073305;28;20220;-69
2024/01/26 06:33:18;;;;;;;3.30;0.80;;;;;;;;;;5072927;28;20231;-69
2024/01/26 06:35:44;;;;;;;1.85;0.60;;;;;;;;;;5073555;28;20247;-70
2024/01/26 06:38:11;;;;;;;0.80;0.80;;;;;;;;;;5073204;28;20614;-70
2024/01/26 06:40:38;;;;;;;0.80;0.80;;;;;;;;;;5073358;28;20200;-62
2024/01/26 06:43:07;;;;;;;2.70;0.88;;;;;;;;;;5072471;28;20261;-62
2024/01/26 06:45:34;;;;;;;1.98;0.80;;;;;;;;;;5072716;28;20220;-63
2024/01/26 06:48:00;;;;;;;1.27;1.17;;;;;;;;;;5072692;28;20204;-61
2024/01/26 06:50:27;;;;;;;0.68;0.68;;;;;;;;;;5072530;28;20192;-61
2024/01/26 06:52:53;;;;;;;0.70;0.70;;;;;;;;;;5072464;28;20183;-61
2024/01/26 06:55:19;;;;;;;0.93;0.93;;;;;;;;;;5072290;28;20246;-61
2024/01/26 06:57:47;;;;;;;0.63;0.63;;;;;;;;;;5072408;28;20645;-61
2024/01/26 07:00:14;;;;;;;1.10;0.95;;;;;;;;;;5072157;28;20664;-61
2024/01/26 07:02:40;;;;;;;0.52;0.52;;;;;;;;;;5072287;28;20188;-61
2024/01/26 07:05:07;;;;;;;0.63;0.60;;;;;;;;;;5072382;28;20250;-61
2024/01/26 07:07:33;;;;;;;0.80;0.80;;;;;;;;;;5071974;28;20196;-62
2024/01/26 07:09:59;;;;;;;0.85;0.70;;;;;;;;;;5072525;28;20234;-61
2024/01/26 07:12:25;;;;;;;3.03;0.90;;;;;;;;;;5072014;28;20209;-61
2024/01/26 07:14:53;;;;;;;0.68;0.68;;;;;;;;;;5072074;28;20257;-62
2024/01/26 07:17:19;;;;;;;0.80;0.80;;;;;;;;;;5072007;28;20274;-62
2024/01/26 07:19:45;;;;;;;1.25;0.73;;;;;;;;;;5072208;28;20281;-62
2024/01/26 07:22:12;;;;;;;0.80;0.70;;;;;;;;;;5072099;28;20200;-64
2024/01/26 07:24:38;;;;;;;1.17;1.10;;;;;;;;;;5049276;28;20213;-64
2024/01/26 07:27:05;;;;;;;0.93;0.70;;;;;;;;;;5055779;28;20228;-63
2024/01/26 07:29:32;;;;;;;0.75;0.75;;;;;;;;;;5049932;28;20212;-65
2024/01/26 07:32:00;;;;;;;0.70;0.70;;;;;;;;;;5066433;28;20278;-64
2024/01/26 07:34:26;;;;;;;0.60;0.57;;;;;;;;;;5046700;28;20209;-65
2024/01/26 07:36:52;;;;;;;3.03;0.90;;;;;;;;;;5055101;28;20278;-64
2024/01/26 07:39:19;;;;;;;2.05;0.80;;;;;;;;;;5046261;28;20263;-64
2024/01/26 07:41:46;;;;;;;1.63;0.60;;;;;;;;;;5045431;28;20209;-65
2024/01/26 07:44:12;;;;;;;1.65;0.75;;;;;;;;;;5051682;28;20215;-65
2024/01/26 07:46:41;;;;;;;2.22;0.70;;;;;;;;;;5055586;28;20228;-64
2024/01/26 07:49:08;;;;;;;1.38;0.80;;;;;;;;;;5051929;28;20217;-64
2024/01/26 07:51:34;;;;;;;1.60;1.50;;;;;;;;;;5056260;28;20216;-63
2024/01/26 07:54:01;;;;;;;1.38;1.27;;;;;;;;;;5066109;28;20216;-62
2024/01/26 07:56:27;;;;;;;1.83;1.73;;;;;;;;;;5066366;28;20228;-62
2024/01/26 07:58:53;;;;;;;1.27;1.27;;;;;;;;;;5066456;28;20200;-62
2024/01/26 08:01:19;;;;;;;1.00;1.00;;;;;;;;;;5066444;28;20254;-62
2024/01/26 08:03:46;;;;;;;1.00;1.00;;;;;;;;;;5066419;28;20258;-62
2024/01/26 08:06:13;;;;;;;0.80;0.80;;;;;;;;;;5065801;28;20223;-62
2024/01/26 08:08:39;;;;;;;1.58;0.70;;;;;;;;;;5066322;28;20239;-62
2024/01/26 08:11:06;;;;;;;0.60;0.60;;;;;;;;;;5066659;28;20258;-62
2024/01/26 08:13:32;;;;;;;1.08;0.98;;;;;;;;;;5053397;28;20212;-63
2024/01/26 08:15:58;;;;;;;0.70;0.70;;;;;;;;;;5051993;28;20252;-60
2024/01/26 08:18:24;;;;;;;2.35;0.68;;;;;;;;;;5045547;28;20208;-61
2024/01/26 08:20:51;;;;;;;1.33;1.00;;;;;;;;;;5047497;28;20209;-63
2024/01/26 08:23:18;;;;;;;0.88;0.85;;;;;;;;;;5046268;28;20197;-62
2024/01/26 08:25:45;;;;;;;2.03;0.93;;;;;;;;;;5048227;28;20779;-62
2024/01/26 08:28:11;;;;;;;0.82;0.60;;;;;;;;;;5050316;28;20220;-60
2024/01/26 08:30:38;;;;;;;1.15;0.80;;;;;;;;;;5050927;28;20240;-63
2024/01/26 08:33:05;;;;;;;1.02;0.70;;;;;;;;;;5050235;28;20220;-62
2024/01/26 08:35:31;;;;;;;0.60;0.60;;;;;;;;;;5050161;28;20233;-61
2024/01/26 08:37:57;;;;;;;1.13;0.70;;;;;;;;;;5051019;28;20236;-61
2024/01/26 08:40:25;;;;;;;1.15;0.60;;;;;;;;;;5051209;28;20219;-61
2024/01/26 08:42:52;;;;;;;0.82;0.82;;;;;;;;;;5051495;28;20232;-62
2024/01/26 08:45:18;;;;;;;1.27;0.70;;;;;;;;;;5051493;28;20212;-63
2024/01/26 08:47:44;;;;;;;1.30;0.80;;;;;;;;;;5051659;28;20531;-63
2024/01/26 08:50:11;;;;;;;0.70;0.70;;;;;;;;;;5051126;28;20256;-63
2024/01/26 08:52:37;;;;;;;0.60;0.60;;;;;;;;;;5051025;28;20244;-64
2024/01/26 08:55:03;;;;;;;0.70;0.70;;;;;;;;;;5050606;28;20274;-62
2024/01/26 08:57:31;;;;;;;0.80;0.65;;;;;;;;;;5055182;28;20291;-60
2024/01/26 08:59:59;;;;;;;1.05;1.05;;;;;;;;;;5050420;28;21064;-61
2024/01/26 09:02:25;;;;;;;1.25;0.77;;;;;;;;;;5050408;28;20201;-62
2024/01/26 09:04:53;;;;;;;2.78;0.98;;;;;;;;;;5050651;28;20255;-62
2024/01/26 09:07:21;;;;;;;1.10;1.10;;;;;;;;;;5050240;28;20287;-62
2024/01/26 09:09:48;;;;;;;0.98;0.95;;;;;;;;;;5050980;28;20237;-61
2024/01/26 09:12:14;;;;;;;1.15;0.80;;;;;;;;;;5054231;28;20225;-64
2024/01/26 09:14:42;;;;;;;1.67;0.90;;;;;;;;;;5050440;28;20624;-63
2024/01/26 09:17:08;;;;;;;0.80;0.77;;;;;;;;;;5050434;28;20577;-63
2024/01/26 09:19:34;;;;;;;0.90;0.90;;;;;;;;;;5052020;28;20205;-63
2024/01/26 09:22:00;;;;;;;0.50;0.50;;;;;;;;;;5050826;28;20212;-63
2024/01/26 09:24:27;;;;;;;0.70;0.70;;;;;;;;;;5050731;28;20218;-64
2024/01/26 09:26:55;;;;;;;0.68;0.68;;;;;;;;;;5050718;28;20236;-62
2024/01/26 09:29:22;;;;;;;1.00;0.85;;;;;;;;;;5050541;28;20292;-64
2024/01/26 09:31:52;;;;;;;1.75;0.80;;;;;;;;;;5051021;28;20233;-63
2024/01/26 09:34:18;;;;;;;1.75;1.00;;;;;;;;;;5047191;28;20209;-63
2024/01/26 09:36:44;;;;;;;1.45;0.70;;;;;;;;;;5050397;28;20229;-63
2024/01/26 09:39:11;;;;;;;0.65;0.65;;;;;;;;;;5057941;28;20208;-63
2024/01/26 09:41:38;;;;;;;0.77;0.70;;;;;;;;;;5050754;28;20212;-63
2024/01/26 09:44:04;;;;;;;0.55;0.55;;;;;;;;;;5050304;28;20205;-64
2024/01/26 09:46:31;;;;;;;2.10;0.90;;;;;;;;;;5050611;28;20232;-65
2024/01/26 09:48:59;;;;;;;1.05;0.52;;;;;;;;;;5050153;28;20278;-64
2024/01/26 09:51:26;;;;;;;0.75;0.63;;;;;;;;;;5049392;28;20300;-64
2024/01/26 09:53:54;;;;;;;0.68;0.68;;;;;;;;;;5049822;28;20338;-64
2024/01/26 09:56:21;;;;;;;0.70;0.70;;;;;;;;;;5050116;28;20228;-64
2024/01/26 09:58:47;;;;;;;1.02;1.02;;;;;;;;;;5050295;28;20274;-64
2024/01/26 10:01:15;;;;;;;0.80;0.80;;;;;;;;;;5050662;28;20209;-64
2024/01/26 10:03:41;;;;;;;1.58;0.80;;;;;;;;;;5049486;28;20817;-64
2024/01/26 10:06:11;;;;;;;0.95;0.95;;;;;;;;;;5049981;28;20666;-62
2024/01/26 10:08:37;;;;;;;2.67;1.00;;;;;;;;;;5052285;28;20266;-61
2024/01/26 10:11:04;;;;;;;0.98;0.90;;;;;;;;;;5049960;28;20216;-62
2024/01/26 10:13:30;;;;;;;0.90;0.90;;;;;;;;;;5049298;28;20311;-62
2024/01/26 10:16:04;;;;;;;2.05;0.80;;;;;;;;;;5050161;28;20228;-63
2024/01/26 10:18:37;;;;;;;0.90;0.90;;;;;;;;;;5051487;28;20205;-62
2024/01/26 10:21:04;;;;;;;2.10;1.20;;;;;;;;;;5049507;28;20270;-63
2024/01/26 10:23:32;;;;;;;3.28;1.00;;;;;;;;;;5049641;28;20205;-62
2024/01/26 10:25:58;;;;;;;1.20;1.02;;;;;;;;;;5049021;28;20237;-62
2024/01/26 10:28:24;;;;;;;1.20;1.10;;;;;;;;;;5049002;28;20217;-64
2024/01/26 10:30:50;;;;;;;2.08;0.93;;;;;;;;;;5048957;28;20209;-63
2024/01/26 10:33:17;;;;;;;1.48;0.98;;;;;;;;;;5048728;28;20763;-63
2024/01/26 10:35:45;;;;;;;1.02;1.02;;;;;;;;;;5049344;28;20268;-63
2024/01/26 10:38:14;;;;;;;1.48;1.38;;;;;;;;;;5049271;28;20213;-62
2024/01/26 10:40:43;;;;;;;1.45;1.15;;;;;;;;;;5049505;28;20205;-63
2024/01/26 10:43:10;;;;;;;0.80;0.80;;;;;;;;;;5048850;28;20875;-67
2024/01/26 10:45:36;;;;;;;1.00;1.00;;;;;;;;;;5049137;28;20224;-63
2024/01/26 10:48:02;;;;;;;1.98;1.05;;;;;;;;;;5048236;28;20743;-62
2024/01/26 10:50:29;;;;;;;1.05;1.00;;;;;;;;;;5047577;28;20221;-63
2024/01/26 10:52:56;;;;;;;1.65;0.90;;;;;;;;;;5047743;28;20212;-62
2024/01/26 10:55:23;;;;;;;1.65;0.95;;;;;;;;;;5054741;28;20220;-64
2024/01/26 10:57:50;;;;;;;2.03;1.05;;;;;;;;;;5065064;28;20208;-63
2024/01/26 11:00:17;;;;;;;1.20;1.10;;;;;;;;;;5047386;28;20213;-63
2024/01/26 11:02:43;;;;;;;1.00;1.00;;;;;;;;;;5050986;28;20205;-63
2024/01/26 11:05:10;;;;;;;3.08;1.05;;;;;;;;;;5051774;28;20209;-63
2024/01/26 11:07:37;;;;;;;2.35;1.02;;;;;;;;;;5054919;28;20568;-62
2024/01/26 11:10:05;;;;;;;0.90;0.90;;;;;;;;;;5058745;28;21028;-63
2024/01/26 11:12:34;;;;;;;0.80;0.80;;;;;;;;;;5050763;28;20606;-62
2024/01/26 11:15:08;;;;;;;0.98;0.90;;;;;;;;;;5064738;28;21005;-63
2024/01/26 11:17:41;;;;;;;0.98;0.98;;;;;;;;;;5056145;28;20886;-63
2024/01/26 11:20:12;;;;;;;1.35;1.00;;;;;;;;;;5054910;28;20582;-63
2024/01/26 11:22:38;;;;;;;1.00;1.00;;;;;;;;;;5055674;28;20685;-63
2024/01/26 11:25:05;;;;;;;2.25;0.80;;;;;;;;;;5047326;28;20699;-63
2024/01/26 11:27:31;;;;;;;0.90;0.90;;;;;;;;;;5054836;28;20209;-62
2024/01/26 11:29:57;;;;;;;1.05;0.93;;;;;;;;;;5051807;28;20213;-63
2024/01/26 11:32:25;;;;;;;2.10;1.00;;;;;;;;;;5056235;28;20564;-63
2024/01/26 11:34:58;;;;;;;1.00;1.00;;;;;;;;;;5053709;28;20212;-63
2024/01/26 11:37:27;;;;;;;1.02;0.98;;;;;;;;;;5046916;28;20448;-63
2024/01/26 11:39:54;;;;;;;1.13;1.13;;;;;;;;;;5058671;28;20235;-63
2024/01/26 11:42:21;;;;;;;0.90;0.90;;;;;;;;;;5054157;28;21733;-63
2024/01/26 11:44:53;;;;;;;1.55;0.80;;;;;;;;;;5059678;28;20295;-63
2024/01/26 11:47:19;;;;;;;4.88;1.05;;;;;;;;;;5058223;28;20229;-63
2024/01/26 11:49:47;;;;;;;1.55;1.02;;;;;;;;;;5054653;28;20303;-63
2024/01/26 11:52:13;;;;;;;1.10;0.70;;;;;;;;;;5053648;28;20294;-63
2024/01/26 11:54:43;;;;;;;2.17;1.02;;;;;;;;;;5048381;28;20209;-64
2024/01/26 11:57:10;;;;;;;0.80;0.80;;;;;;;;;;5060372;28;20251;-63
2024/01/26 11:59:36;;;;;;;0.90;0.90;;;;;;;;;;5059418;28;20681;-63
2024/01/26 12:02:03;;;;;;;0.60;0.60;;;;;;;;;;5065641;28;20299;-63
2024/01/26 12:04:29;;;;;;;0.90;0.90;;;;;;;;;;5048259;28;20735;-63
2024/01/26 12:06:57;;;;;;;1.05;1.05;;;;;;;;;;5051139;28;20227;-63
2024/01/26 12:09:23;;;;;;;0.70;0.70;;;;;;;;;;5054184;28;20274;-64
2024/01/26 12:11:49;;;;;;;2.38;0.70;;;;;;;;;;5061537;28;20217;-63
2024/01/26 12:14:15;;;;;;;2.05;0.90;;;;;;;;;;5061548;28;20699;-62
2024/01/26 12:16:42;;;;;;;0.98;0.98;;;;;;;;;;5066822;28;20728;-62
2024/01/26 12:19:08;;;;;;;1.00;1.00;;;;;;;;;;5059160;28;20681;-63
2024/01/26 12:21:35;;;;;;;1.00;1.00;;;;;;;;;;5062045;28;20734;-62
2024/01/26 12:24:07;;;;;;;0.80;0.80;;;;;;;;;;5054211;28;20208;-63
2024/01/26 12:26:34;;;;;;;2.75;1.00;;;;;;;;;;5068361;28;20220;-63
2024/01/26 12:29:00;;;;;;;1.00;1.00;;;;;;;;;;5049417;28;20212;-63
2024/01/26 12:31:28;;;;;;;1.15;0.90;;;;;;;;;;5055735;28;20267;-63
2024/01/26 12:33:54;;;;;;;1.10;1.10;;;;;;;;;;5052969;28;20225;-63
2024/01/26 12:36:20;;;;;;;0.88;0.80;;;;;;;;;;5056061;28;20213;-63
2024/01/26 12:38:46;;;;;;;1.75;1.00;;;;;;;;;;5054434;28;20217;-64
2024/01/26 12:41:14;;;;;;;1.25;1.13;;;;;;;;;;5063602;28;20205;-63
2024/01/26 12:43:41;;;;;;;1.98;1.08;;;;;;;;;;5055643;28;20208;-63
2024/01/26 12:46:07;;;;;;;1.02;0.90;;;;;;;;;;5067695;28;20274;-63
2024/01/26 12:48:33;;;;;;;0.77;0.77;;;;;;;;;;5054099;28;20201;-62
2024/01/26 12:51:00;;;;;;;3.13;2.20;;;;;;;;;;5056392;28;20303;-62
2024/01/26 12:53:26;;;;;;;1.00;1.00;;;;;;;;;;5062523;28;20243;-63
2024/01/26 12:55:53;;;;;;;0.80;0.80;;;;;;;;;;5058435;28;20227;-63
2024/01/26 12:58:20;;;;;;;2.00;1.00;;;;;;;;;;5067836;28;20204;-63
2024/01/26 13:00:48;;;;;;;0.88;0.88;;;;;;;;;;5053072;28;20237;-63
2024/01/26 13:03:15;;;;;;;1.00;1.00;;;;;;;;;;5066165;28;20209;-63
2024/01/26 13:05:41;;;;;;;1.08;1.08;;;;;;;;;;5061010;28;20217;-63
2024/01/26 13:08:08;;;;;;;1.00;1.00;;;;;;;;;;5057501;28;20235;-63
2024/01/26 13:10:34;;;;;;;0.80;0.80;;;;;;;;;;5059381;28;20205;-63
2024/01/26 13:13:00;;;;;;;1.40;1.00;;;;;;;;;;5058503;28;20559;-63
2024/01/26 13:15:28;;;;;;;0.60;0.60;;;;;;;;;;5065696;28;20259;-63
2024/01/26 13:17:54;;;;;;;0.82;0.82;;;;;;;;;;5064347;28;20278;-63
2024/01/26 13:20:20;;;;;;;0.93;0.88;;;;;;;;;;5064921;28;20258;-63
2024/01/26 13:22:48;;;;;;;1.85;0.80;;;;;;;;;;5057509;28;20208;-63
2024/01/26 13:25:14;;;;;;;0.77;0.77;;;;;;;;;;5059199;28;20648;-63
2024/01/26 13:27:41;;;;;;;0.80;0.75;;;;;;;;;;5050221;28;20259;-64
2024/01/26 13:30:07;;;;;;;0.85;0.85;;;;;;;;;;5056653;28;20208;-62
2024/01/26 13:32:36;;;;;;;1.00;1.00;;;;;;;;;;5049014;28;20288;-62
2024/01/26 13:35:03;;;;;;;0.68;0.65;;;;;;;;;;5057855;28;20571;-63
2024/01/26 13:37:29;;;;;;;0.82;0.82;;;;;;;;;;5062116;28;20204;-63
2024/01/26 13:39:56;;;;;;;2.33;1.00;;;;;;;;;;5059607;28;20212;-63
2024/01/26 13:42:22;;;;;;;0.90;0.77;;;;;;;;;;5060733;28;20628;-63
2024/01/26 13:44:49;;;;;;;0.98;0.90;;;;;;;;;;5064813;28;20204;-63
2024/01/26 13:47:15;;;;;;;0.68;0.68;;;;;;;;;;5061235;28;20270;-63
2024/01/26 13:49:43;;;;;;;0.93;0.90;;;;;;;;;;5066077;28;20261;-63
2024/01/26 13:52:09;;;;;;;0.90;0.90;;;;;;;;;;5056903;28;20213;-63
2024/01/26 13:54:35;;;;;;;0.60;0.60;;;;;;;;;;5059432;28;20220;-63
2024/01/26 13:57:01;;;;;;;1.08;0.85;;;;;;;;;;5066750;28;20267;-64
2024/01/26 13:59:28;;;;;;;0.82;0.82;;;;;;;;;;5059437;28;20269;-63
2024/01/26 14:01:54;;;;;;;1.00;1.00;;;;;;;;;;5065423;28;20857;-63
2024/01/26 14:04:20;;;;;;;0.82;0.82;;;;;;;;;;5056783;28;20223;-63
2024/01/26 14:06:48;;;;;;;0.73;0.73;;;;;;;;;;5062667;28;20781;-64
2024/01/26 14:09:14;;;;;;;0.93;0.93;;;;;;;;;;5060393;28;20204;-62
2024/01/26 14:11:40;;;;;;;1.60;0.88;;;;;;;;;;5059397;28;20209;-63
2024/01/26 14:14:07;;;;;;;1.95;1.10;;;;;;;;;;5048064;28;20230;-63
2024/01/26 14:16:33;;;;;;;0.90;0.90;;;;;;;;;;5054260;28;20227;-62
2024/01/26 14:18:59;;;;;;;0.80;0.80;;;;;;;;;;5054844;28;20205;-60
2024/01/26 14:21:26;;;;;;;3.38;1.10;;;;;;;;;;5055336;28;20204;-61
2024/01/26 14:23:53;;;;;;;1.42;1.35;;;;;;;;;;5055170;28;20197;-62
2024/01/26 14:26:20;;;;;;;0.98;0.98;;;;;;;;;;5048268;28;20224;-61
2024/01/26 14:28:47;;;;;;;0.82;0.82;;;;;;;;;;5052160;28;20206;-62
2024/01/26 14:31:13;;;;;;;3.45;1.15;;;;;;;;;;5053191;28;20209;-63
2024/01/26 14:33:39;;;;;;;1.67;1.17;;;;;;;;;;5049494;28;20228;-60
2024/01/26 14:36:07;;;;;;;3.13;1.40;;;;;;;;;;5048975;28;20229;-62
2024/01/26 14:38:33;;;;;;;2.47;1.40;;;;;;;;;;5049136;28;20248;-60